KBGD/BGD METAR and TAF weather

Enter ICAO airport designator
Station Type Date Time Source
KBGD METAR 2019/12/13 00:51 UTC NOAA

KBGD 130051Z AUTO 00000KT 10SM CLR 11/M03 A3001 RMK AO2 SLP157 T01111033


Station Type Date Time Source
KBGD Decoded METAR 2019/12/13 00:51 UTC NOAA

BORGER HUTCHINSON CO AIRPORT , TX, United States (KBGD) 35-42N 101-24W 927M
Dec 12, 2019 - 07:51 PM EST / 2019.12.13 0051 UTC
Wind: Calm:0
Visibility: 10 mile(s):0
Sky conditions: clear
Temperature: 52.0 F (11.1 C)
Dew Point: 26.1 F (-3.3 C)
Relative Humidity: 36%
Pressure (altimeter): 30.01 in. Hg (1016 hPa)
ob: KBGD 130051Z AUTO 00000KT 10SM CLR 11/M03 A3001 RMK AO2 SLP157 T01111033
cycle: 1

Station Type Date Time Source
KBGD TAF UTC NOAA

Error!

Example: see airport list